Time;durP1;ratioP1;P1;durP2;ratioP2;P2;SDS_P1;SDS_P2;PMS_P1;PMS_P2;Temp;Humidity;BMP_temperature;BMP_pressure;BME280_temperature;BME280_humidity;BME280_pressure;Samples;Min_cycle;Max_cycle;Signal;HPM_P1;HPM_P2
2023/03/25 00:00:57;;;;;;;3.28;1.60;;;10.90;66.60;;;;;;5054514;28;20025;-64
2023/03/25 00:03:28;;;;;;;4.07;1.85;;;10.80;66.30;;;;;;5060865;28;20180;-65
2023/03/25 00:05:55;;;;;;;1.88;1.48;;;10.80;66.50;;;;;;5053657;28;20392;-64
2023/03/25 00:08:23;;;;;;;2.92;1.90;;;10.80;66.50;;;;;;5064487;28;20051;-64
2023/03/25 00:10:56;;;;;;;5.07;2.00;;;10.80;66.30;;;;;;5062462;28;20033;-64
2023/03/25 00:13:22;;;;;;;2.83;1.95;;;10.70;66.60;;;;;;5063256;28;20028;-63
2023/03/25 00:15:52;;;;;;;4.30;2.00;;;10.70;66.50;;;;;;5063636;28;20048;-64
2023/03/25 00:18:19;;;;;;;2.97;1.73;;;10.70;66.80;;;;;;5056195;28;20025;-63
2023/03/25 00:20:48;;;;;;;5.05;1.92;;;10.70;67.00;;;;;;5052335;28;20025;-63
2023/03/25 00:23:14;;;;;;;3.20;1.92;;;10.70;67.20;;;;;;5055039;28;20021;-64
2023/03/25 00:25:40;;;;;;;3.53;2.30;;;10.70;67.20;;;;;;5060318;28;20028;-64
2023/03/25 00:28:07;;;;;;;3.47;2.05;;;10.70;67.30;;;;;;5062842;28;20028;-64
2023/03/25 00:30:32;;;;;;;3.95;2.10;;;10.70;67.30;;;;;;5060119;28;20037;-63
2023/03/25 00:33:00;;;;;;;5.72;2.50;;;10.70;67.20;;;;;;5061197;28;20032;-63
2023/03/25 00:35:27;;;;;;;3.75;2.33;;;10.70;67.00;;;;;;5057847;28;20041;-63
2023/03/25 00:37:58;;;;;;;5.53;2.30;;;10.70;67.00;;;;;;5059743;28;20024;-63
2023/03/25 00:40:29;;;;;;;3.35;2.28;;;10.70;67.00;;;;;;4972478;28;20376;-63
2023/03/25 00:42:56;;;;;;;3.97;2.25;;;10.70;67.10;;;;;;5057965;28;20063;-64
2023/03/25 00:45:22;;;;;;;3.03;2.05;;;10.70;67.00;;;;;;5063722;28;20037;-63
2023/03/25 00:47:48;;;;;;;4.15;2.20;;;10.60;66.90;;;;;;5068122;28;20115;-63
2023/03/25 00:50:14;;;;;;;2.55;1.70;;;10.60;67.10;;;;;;5064253;28;20542;-64
2023/03/25 00:52:40;;;;;;;5.65;2.05;;;10.60;67.30;;;;;;5053903;28;20047;-63
2023/03/25 00:55:06;;;;;;;2.85;1.83;;;10.60;67.30;;;;;;5060880;28;20040;-64
2023/03/25 00:57:33;;;;;;;4.32;1.98;;;10.60;67.40;;;;;;5061073;28;20033;-63
2023/03/25 00:59:59;;;;;;;4.05;2.03;;;10.60;67.50;;;;;;5062396;28;20021;-63
2023/03/25 01:02:24;;;;;;;4.68;2.33;;;10.60;67.40;;;;;;5063196;28;20016;-64
2023/03/25 01:04:50;;;;;;;3.05;1.98;;;10.60;67.50;;;;;;5065754;28;20033;-62
2023/03/25 01:07:19;;;;;;;3.40;1.90;;;10.60;67.50;;;;;;5061236;28;20047;-63
2023/03/25 01:09:46;;;;;;;4.47;2.03;;;10.60;67.70;;;;;;5062681;28;20096;-65
2023/03/25 01:12:13;;;;;;;4.90;2.33;;;10.60;67.60;;;;;;5062418;28;20020;-64
2023/03/25 01:14:39;;;;;;;4.75;2.22;;;10.60;67.90;;;;;;5055392;28;20032;-64
2023/03/25 01:17:05;;;;;;;3.10;2.00;;;10.60;67.70;;;;;;5051254;28;20037;-64
2023/03/25 01:19:31;;;;;;;3.42;2.00;;;10.60;68.00;;;;;;5053045;28;20025;-64
2023/03/25 01:21:56;;;;;;;4.95;2.15;;;10.50;68.20;;;;;;5064641;28;20033;-63
2023/03/25 01:24:22;;;;;;;2.53;2.17;;;10.50;68.40;;;;;;5057883;28;20052;-63
2023/03/25 01:26:48;;;;;;;5.47;2.00;;;10.50;68.50;;;;;;5068137;28;20032;-62
2023/03/25 01:29:16;;;;;;;4.28;1.92;;;10.60;68.50;;;;;;5063138;28;20040;-64
2023/03/25 01:31:42;;;;;;;2.70;2.03;;;10.60;68.50;;;;;;5062858;28;20120;-63
2023/03/25 01:34:08;;;;;;;4.07;2.08;;;10.60;68.50;;;;;;5058089;28;20033;-63
2023/03/25 01:36:38;;;;;;;3.53;2.13;;;10.60;68.50;;;;;;5055676;28;20290;-63
2023/03/25 01:39:06;;;;;;;3.40;1.92;;;10.60;68.50;;;;;;5080879;28;20037;-64
2023/03/25 01:41:33;;;;;;;6.88;1.90;;;10.60;68.50;;;;;;5055631;28;20084;-64
2023/03/25 01:44:06;;;;;;;2.42;1.90;;;10.60;68.40;;;;;;5062567;28;20423;-63
2023/03/25 01:46:33;;;;;;;4.28;2.25;;;10.60;68.70;;;;;;5052480;28;20021;-63
2023/03/25 01:49:03;;;;;;;3.53;2.20;;;10.50;68.00;;;;;;5055428;28;20071;-64
2023/03/25 01:51:34;;;;;;;4.43;1.90;;;10.50;68.20;;;;;;5057893;28;20044;-62
2023/03/25 01:54:00;;;;;;;3.95;2.10;;;10.50;68.30;;;;;;5054565;28;20296;-63
2023/03/25 01:56:30;;;;;;;3.97;1.70;;;10.50;68.40;;;;;;5060311;28;20452;-62
2023/03/25 01:58:58;;;;;;;6.43;1.77;;;10.40;68.50;;;;;;5056539;28;20021;-63
2023/03/25 02:01:25;;;;;;;2.55;1.70;;;10.40;68.30;;;;;;5061782;28;20020;-62
2023/03/25 02:03:53;;;;;;;4.63;1.92;;;10.40;68.40;;;;;;5050932;28;20061;-64
2023/03/25 02:06:27;;;;;;;5.90;1.77;;;10.40;68.50;;;;;;5050716;28;20047;-63
2023/03/25 02:08:56;;;;;;;3.35;2.22;;;10.30;68.70;;;;;;5047394;28;20028;-63
2023/03/25 02:11:24;;;;;;;5.28;1.80;;;10.30;68.40;;;;;;5057095;28;20093;-63
2023/03/25 02:13:50;;;;;;;2.67;1.80;;;10.30;68.30;;;;;;5050111;28;20020;-63
2023/03/25 02:16:33;;;;;;;3.75;1.58;;;10.30;68.40;;;;;;5064202;28;20051;-63
2023/03/25 02:19:39;;;;;;;5.80;1.98;;;10.30;68.70;;;;;;5055372;28;20487;-63
2023/03/25 02:22:36;;;;;;;6.63;1.25;;;10.30;68.80;;;;;;5019505;28;20029;-64
2023/03/25 02:25:24;;;;;;;4.38;1.33;;;10.20;68.10;;;;;;5037139;28;20053;-63
2023/03/25 02:28:11;;;;;;;0.52;0.52;;;10.10;67.80;;;;;;5040160;28;20075;-63
2023/03/25 02:31:08;;;;;;;2.08;0.70;;;10.10;67.40;;;;;;5037716;28;20052;-63
2023/03/25 02:33:59;;;;;;;3.40;1.00;;;10.00;67.30;;;;;;5006160;28;20049;-62
2023/03/25 02:37:08;;;;;;;3.25;0.88;;;9.90;67.40;;;;;;5032464;28;20037;-62
2023/03/25 02:39:46;;;;;;;1.40;0.60;;;9.90;67.30;;;;;;5032610;28;20638;-64
2023/03/25 02:42:25;;;;;;;1.58;0.80;;;9.90;67.00;;;;;;5033708;28;20048;-63
2023/03/25 02:45:10;;;;;;;1.50;0.70;;;9.90;67.20;;;;;;5034361;28;20071;-63
2023/03/25 02:47:45;;;;;;;1.95;0.68;;;9.90;67.10;;;;;;5038297;28;20025;-62
2023/03/25 02:50:17;;;;;;;1.63;0.70;;;9.90;67.30;;;;;;5035866;28;20041;-63
2023/03/25 02:52:48;;;;;;;1.60;0.60;;;9.80;67.40;;;;;;5035293;28;20028;-64
2023/03/25 02:55:17;;;;;;;3.15;0.77;;;9.90;67.50;;;;;;5058803;28;20032;-63
2023/03/25 02:57:45;;;;;;;1.65;0.80;;;9.90;67.60;;;;;;5063129;28;20048;-63
2023/03/25 03:00:17;;;;;;;2.13;0.93;;;9.80;67.80;;;;;;5054556;28;20039;-63
2023/03/25 03:02:52;;;;;;;1.88;0.75;;;9.80;68.60;;;;;;5057822;28;20028;-62
2023/03/25 03:05:56;;;;;;;1.33;0.60;;;9.80;67.40;;;;;;5061335;28;20047;-64
2023/03/25 03:08:55;;;;;;;3.50;1.23;;;9.90;67.90;;;;;;5013907;28;20701;-65
2023/03/25 03:11:33;;;;;;;0.93;0.60;;;9.80;67.50;;;;;;5013764;28;20109;-63
2023/03/25 03:14:12;;;;;;;1.75;0.80;;;9.90;67.10;;;;;;5014935;28;20033;-63
2023/03/25 03:16:44;;;;;;;0.70;0.70;;;9.90;67.10;;;;;;5015819;28;20041;-64
2023/03/25 03:19:19;;;;;;;2.45;0.77;;;9.90;67.00;;;;;;5014716;28;20041;-64
2023/03/25 03:22:02;;;;;;;1.20;0.70;;;10.00;66.90;;;;;;5021524;28;20029;-64
2023/03/25 03:24:38;;;;;;;0.60;0.60;;;10.00;66.70;;;;;;4999617;28;20018;-64
2023/03/25 03:27:13;;;;;;;2.05;0.63;;;10.00;66.70;;;;;;5013874;28;20041;-64
2023/03/25 03:29:47;;;;;;;1.65;0.70;;;10.10;66.60;;;;;;5017372;28;20097;-63
2023/03/25 03:32:27;;;;;;;2.40;0.70;;;10.00;66.40;;;;;;5014387;28;20115;-63
2023/03/25 03:34:56;;;;;;;3.13;0.75;;;10.10;66.20;;;;;;5017778;28;20136;-63
2023/03/25 03:37:35;;;;;;;2.15;0.68;;;10.10;66.00;;;;;;5001074;28;20539;-62
2023/03/25 03:40:06;;;;;;;4.10;0.77;;;10.10;65.60;;;;;;4906917;28;20058;-63
2023/03/25 03:42:47;;;;;;;1.65;0.70;;;10.10;65.50;;;;;;5045390;28;20045;-64
2023/03/25 03:45:21;;;;;;;1.10;0.68;;;10.20;65.50;;;;;;5071238;28;20028;-65
2023/03/25 03:47:51;;;;;;;2.53;0.80;;;10.20;65.50;;;;;;5057770;28;20030;-63
2023/03/25 03:50:23;;;;;;;1.92;0.88;;;10.20;65.50;;;;;;5092744;28;20044;-63
2023/03/25 03:53:32;;;;;;;2.20;0.60;;;10.20;65.50;;;;;;5059144;28;20071;-63
2023/03/25 03:56:02;;;;;;;1.92;0.70;;;10.20;65.90;;;;;;5058567;28;20481;-63
2023/03/25 03:58:33;;;;;;;1.95;0.80;;;10.20;65.60;;;;;;5060328;28;20117;-63
2023/03/25 04:01:34;;;;;;;1.15;0.60;;;10.10;65.40;;;;;;5062077;28;20040;-64
2023/03/25 04:04:06;;;;;;;4.28;0.70;;;10.10;65.60;;;;;;5058115;28;20587;-63
2023/03/25 04:06:42;;;;;;;1.52;0.60;;;10.10;65.40;;;;;;5059716;28;20179;-64
2023/03/25 04:09:11;;;;;;;1.20;0.90;;;10.10;65.60;;;;;;5057467;28;20052;-64
2023/03/25 04:11:45;;;;;;;3.63;0.77;;;10.10;65.70;;;;;;5062152;28;20093;-63
2023/03/25 04:14:12;;;;;;;1.02;0.70;;;10.10;65.90;;;;;;5063108;28;20036;-63
2023/03/25 04:16:38;;;;;;;2.28;0.80;;;10.10;66.00;;;;;;5062641;28;20049;-63
2023/03/25 04:19:05;;;;;;;1.75;0.73;;;10.10;66.20;;;;;;5056096;28;20029;-64
2023/03/25 04:21:32;;;;;;;2.88;0.70;;;10.10;66.30;;;;;;5052252;28;20056;-63
2023/03/25 04:24:01;;;;;;;2.15;0.70;;;10.10;66.20;;;;;;5057594;28;20040;-62
2023/03/25 04:26:32;;;;;;;2.72;0.70;;;10.10;66.20;;;;;;5052394;28;20032;-63
2023/03/25 04:29:00;;;;;;;3.42;0.60;;;10.00;66.20;;;;;;5059544;28;20029;-63
2023/03/25 04:31:29;;;;;;;0.90;0.60;;;10.00;65.90;;;;;;5070606;28;20100;-62
2023/03/25 04:33:56;;;;;;;3.25;0.65;;;10.00;65.80;;;;;;5057607;28;20025;-65
2023/03/25 04:36:23;;;;;;;2.75;0.70;;;10.00;65.90;;;;;;5060720;28;20052;-64
2023/03/25 04:38:48;;;;;;;1.77;0.73;;;9.90;65.80;;;;;;5056564;28;20051;-62
2023/03/25 04:41:14;;;;;;;4.32;0.60;;;9.90;65.80;;;;;;5064158;28;20024;-64
2023/03/25 04:43:44;;;;;;;0.93;0.60;;;9.90;65.80;;;;;;5056984;28;20154;-64
2023/03/25 04:46:14;;;;;;;1.75;0.90;;;9.90;65.80;;;;;;5063744;28;20391;-64
2023/03/25 04:48:43;;;;;;;0.63;0.50;;;9.90;66.00;;;;;;5063548;28;20025;-64
2023/03/25 04:51:13;;;;;;;0.50;0.50;;;9.80;65.90;;;;;;5065368;28;20051;-64
2023/03/25 04:53:40;;;;;;;1.00;0.60;;;9.80;65.80;;;;;;5056146;28;20021;-64
2023/03/25 04:56:14;;;;;;;3.13;0.70;;;9.80;65.90;;;;;;5059426;28;20048;-64
2023/03/25 04:58:44;;;;;;;1.10;0.60;;;9.80;65.90;;;;;;5067755;28;20035;-64
2023/03/25 05:01:29;;;;;;;1.88;0.50;;;9.80;65.80;;;;;;5057428;28;20535;-65
2023/03/25 05:04:05;;;;;;;0.50;0.50;;;9.80;65.80;;;;;;5054083;28;20025;-62
2023/03/25 05:06:37;;;;;;;0.90;0.57;;;9.80;65.70;;;;;;5058499;28;20021;-64
2023/03/25 05:09:04;;;;;;;0.65;0.60;;;9.80;65.70;;;;;;5060527;28;20081;-64
2023/03/25 05:11:31;;;;;;;2.92;0.60;;;9.70;65.60;;;;;;5058449;28;20033;-64
2023/03/25 05:13:57;;;;;;;2.05;0.60;;;9.70;65.70;;;;;;5059785;28;20103;-64
2023/03/25 05:16:23;;;;;;;0.47;0.47;;;9.70;65.70;;;;;;5056762;28;20585;-64
2023/03/25 05:18:48;;;;;;;0.70;0.57;;;9.70;65.70;;;;;;5057564;28;20084;-64
2023/03/25 05:21:15;;;;;;;0.93;0.60;;;9.60;65.80;;;;;;5056816;28;20021;-64
2023/03/25 05:23:40;;;;;;;0.85;0.50;;;9.60;65.70;;;;;;5060420;28;20030;-64
2023/03/25 05:26:07;;;;;;;0.88;0.60;;;9.60;65.70;;;;;;5062717;28;20027;-65
2023/03/25 05:28:34;;;;;;;2.05;0.60;;;9.50;65.80;;;;;;5059082;28;20473;-63
2023/03/25 05:31:00;;;;;;;1.00;0.50;;;9.50;65.70;;;;;;5062860;28;20036;-63
2023/03/25 05:33:26;;;;;;;1.05;0.55;;;9.50;65.80;;;;;;5058981;28;20081;-64
2023/03/25 05:35:52;;;;;;;0.63;0.47;;;9.40;65.80;;;;;;5062903;28;20049;-64
2023/03/25 05:38:17;;;;;;;1.65;0.57;;;9.40;65.90;;;;;;5056832;28;20029;-63
2023/03/25 05:40:47;;;;;;;1.00;0.60;;;9.40;66.20;;;;;;5058546;28;20025;-63
2023/03/25 05:43:14;;;;;;;3.38;0.60;;;9.30;66.00;;;;;;5066044;28;20051;-64
2023/03/25 05:45:41;;;;;;;0.68;0.50;;;9.30;66.20;;;;;;5058311;28;20501;-63
2023/03/25 05:48:07;;;;;;;1.40;0.60;;;9.30;66.10;;;;;;5058235;28;20032;-64
2023/03/25 05:50:34;;;;;;;0.68;0.47;;;9.30;66.40;;;;;;5061218;28;20024;-63
2023/03/25 05:53:00;;;;;;;1.20;0.50;;;9.30;66.30;;;;;;5046307;28;20028;-64
2023/03/25 05:55:27;;;;;;;0.60;0.40;;;9.30;66.50;;;;;;5060570;28;20017;-62
2023/03/25 05:57:52;;;;;;;1.10;0.60;;;9.30;66.60;;;;;;5052534;28;20024;-64
2023/03/25 06:00:20;;;;;;;1.67;0.55;;;9.30;66.50;;;;;;5052876;28;20166;-64
2023/03/25 06:02:47;;;;;;;4.45;0.57;;;9.30;66.60;;;;;;5056045;28;20056;-63
2023/03/25 06:05:14;;;;;;;0.60;0.60;;;9.20;66.50;;;;;;5058912;28;20021;-64
2023/03/25 06:07:41;;;;;;;1.92;1.25;;;9.20;66.60;;;;;;5063827;28;20020;-63
2023/03/25 06:10:11;;;;;;;1.23;0.50;;;9.20;66.70;;;;;;5062924;28;20040;-63
2023/03/25 06:12:38;;;;;;;1.63;0.70;;;9.20;66.80;;;;;;5063356;28;20032;-64
2023/03/25 06:15:06;;;;;;;1.73;0.60;;;9.20;66.80;;;;;;5058402;28;20040;-63
2023/03/25 06:17:32;;;;;;;1.33;0.60;;;9.20;66.90;;;;;;5061833;28;20040;-63
2023/03/25 06:19:59;;;;;;;2.25;0.60;;;9.30;67.20;;;;;;5053801;28;20107;-63
2023/03/25 06:22:26;;;;;;;4.22;0.70;;;9.30;67.20;;;;;;5053517;28;20028;-63
2023/03/25 06:24:52;;;;;;;1.05;0.50;;;9.30;67.40;;;;;;5053431;28;20025;-63
2023/03/25 06:27:18;;;;;;;1.15;0.60;;;9.30;67.40;;;;;;5055323;28;20130;-63
2023/03/25 06:29:45;;;;;;;0.65;0.55;;;9.30;67.40;;;;;;5053094;28;20075;-63
2023/03/25 06:32:12;;;;;;;0.73;0.60;;;9.40;67.50;;;;;;5065240;28;20035;-63
2023/03/25 06:34:41;;;;;;;2.78;0.73;;;9.40;67.50;;;;;;5054853;28;20048;-64
2023/03/25 06:37:07;;;;;;;2.05;0.60;;;9.40;67.70;;;;;;5062876;28;20063;-63
2023/03/25 06:39:36;;;;;;;2.88;0.80;;;9.40;67.80;;;;;;5055667;28;20025;-62
2023/03/25 06:42:04;;;;;;;2.53;0.80;;;9.50;67.80;;;;;;5066781;28;20157;-62
2023/03/25 06:44:29;;;;;;;0.95;0.60;;;9.50;68.00;;;;;;5051011;28;20166;-63
2023/03/25 06:46:56;;;;;;;1.20;0.60;;;9.60;67.90;;;;;;5053669;28;20122;-63
2023/03/25 06:49:22;;;;;;;1.85;0.80;;;9.60;67.90;;;;;;5059538;28;20036;-65
2023/03/25 06:51:48;;;;;;;2.67;0.75;;;9.70;68.20;;;;;;5061170;28;20024;-64
2023/03/25 06:54:14;;;;;;;4.32;1.23;;;9.80;68.50;;;;;;5056696;28;20048;-64
2023/03/25 06:56:40;;;;;;;3.28;1.20;;;9.80;68.20;;;;;;5066521;28;20463;-64
2023/03/25 06:59:05;;;;;;;3.75;1.30;;;9.90;68.00;;;;;;5067702;28;20053;-64
2023/03/25 07:01:31;;;;;;;3.92;1.40;;;10.00;67.90;;;;;;5051920;28;20029;-64
2023/03/25 07:03:56;;;;;;;5.00;1.50;;;10.10;67.70;;;;;;5058459;28;20039;-63
2023/03/25 07:06:23;;;;;;;2.53;0.93;;;10.10;67.70;;;;;;5058452;28;20033;-63
2023/03/25 07:08:50;;;;;;;4.75;1.30;;;10.20;67.60;;;;;;5069067;28;20024;-63
2023/03/25 07:11:21;;;;;;;3.40;1.35;;;10.20;67.50;;;;;;5060318;28;20416;-64
2023/03/25 07:13:46;;;;;;;2.70;1.20;;;10.20;67.40;;;;;;5065992;28;20433;-62
2023/03/25 07:16:12;;;;;;;5.03;1.00;;;10.30;67.20;;;;;;5055757;28;20031;-62
2023/03/25 07:18:38;;;;;;;3.20;1.30;;;10.30;67.20;;;;;;5052299;28;20041;-64
2023/03/25 07:21:04;;;;;;;7.10;1.40;;;10.30;67.00;;;;;;5061263;28;20036;-63
2023/03/25 07:23:29;;;;;;;2.30;1.13;;;10.30;67.00;;;;;;5066988;28;20016;-62
2023/03/25 07:25:55;;;;;;;3.28;1.05;;;10.40;66.90;;;;;;5059969;28;20017;-63
2023/03/25 07:28:22;;;;;;;5.50;1.00;;;10.40;66.80;;;;;;5059809;28;20511;-63
2023/03/25 07:30:47;;;;;;;2.58;1.20;;;10.40;66.80;;;;;;5053824;28;20045;-63
2023/03/25 07:33:13;;;;;;;2.58;1.10;;;10.50;67.20;;;;;;5062986;28;20028;-62
2023/03/25 07:35:39;;;;;;;3.13;1.20;;;10.50;67.40;;;;;;5065543;28;20056;-63
2023/03/25 07:38:05;;;;;;;4.57;1.15;;;10.60;67.70;;;;;;5062830;28;20036;-63
2023/03/25 07:40:30;;;;;;;2.30;1.00;;;10.70;67.60;;;;;;5060724;28;20084;-63
2023/03/25 07:42:56;;;;;;;2.25;1.05;;;10.80;67.30;;;;;;5056793;28;20025;-62
2023/03/25 07:45:23;;;;;;;2.17;1.00;;;10.80;66.90;;;;;;5061743;28;20424;-64
2023/03/25 07:47:49;;;;;;;3.33;1.27;;;10.90;66.50;;;;;;5055418;28;20029;-63
2023/03/25 07:50:20;;;;;;;3.78;0.98;;;10.90;66.20;;;;;;5058464;28;20313;-63
2023/03/25 07:52:46;;;;;;;5.43;1.17;;;11.00;66.20;;;;;;5053039;28;20111;-63
2023/03/25 07:55:13;;;;;;;3.25;1.20;;;11.10;66.20;;;;;;5064564;28;20033;-63
2023/03/25 07:57:40;;;;;;;2.97;1.33;;;11.20;66.10;;;;;;5060461;28;20032;-64
2023/03/25 08:00:07;;;;;;;2.63;1.08;;;11.30;65.70;;;;;;5060255;28;20020;-63
2023/03/25 08:02:33;;;;;;;3.75;1.35;;;11.40;65.70;;;;;;5056551;28;20068;-63
2023/03/25 08:04:59;;;;;;;3.25;1.30;;;11.50;65.70;;;;;;5051809;28;20033;-63
2023/03/25 08:07:27;;;;;;;2.88;1.20;;;11.50;65.50;;;;;;5054381;28;20041;-62
2023/03/25 08:09:53;;;;;;;2.55;1.05;;;11.70;65.30;;;;;;5057561;28;20025;-64
2023/03/25 08:12:19;;;;;;;2.80;1.20;;;11.80;65.00;;;;;;5071677;28;20090;-63
2023/03/25 08:14:45;;;;;;;5.78;1.25;;;11.80;64.80;;;;;;5053766;28;20032;-62
2023/03/25 08:17:10;;;;;;;1.40;0.98;;;11.90;64.10;;;;;;5053355;28;20260;-63
2023/03/25 08:19:36;;;;;;;1.83;1.15;;;12.00;64.10;;;;;;5071763;28;20104;-63
2023/03/25 08:22:02;;;;;;;3.63;1.13;;;12.00;64.00;;;;;;5058557;28;20053;-62
2023/03/25 08:24:31;;;;;;;4.30;1.10;;;11.90;63.90;;;;;;5056533;28;20055;-63
2023/03/25 08:26:59;;;;;;;1.98;0.98;;;11.90;63.90;;;;;;5066763;28;20028;-63
2023/03/25 08:29:26;;;;;;;1.77;1.00;;;11.80;63.80;;;;;;5054248;28;20029;-62
2023/03/25 08:31:51;;;;;;;3.45;1.10;;;11.80;64.10;;;;;;5054893;28;20318;-62
2023/03/25 08:34:19;;;;;;;2.80;1.20;;;11.80;64.60;;;;;;5049803;28;20064;-63
2023/03/25 08:36:45;;;;;;;1.65;1.00;;;11.80;65.10;;;;;;5052317;28;20037;-63
2023/03/25 08:39:11;;;;;;;6.13;1.42;;;11.80;65.40;;;;;;5061421;28;20055;-64
2023/03/25 08:41:38;;;;;;;3.53;1.10;;;11.90;64.80;;;;;;5051951;28;20039;-63
2023/03/25 08:44:05;;;;;;;1.27;0.82;;;12.00;64.50;;;;;;5062033;28;20060;-62
2023/03/25 08:46:31;;;;;;;4.68;1.27;;;12.00;63.80;;;;;;5066210;28;20093;-64
2023/03/25 08:48:56;;;;;;;3.05;1.73;;;12.10;63.40;;;;;;5058086;28;20033;-66
2023/03/25 08:51:22;;;;;;;4.20;1.50;;;12.10;63.30;;;;;;5060032;28;20034;-64
2023/03/25 08:53:48;;;;;;;2.88;1.45;;;12.00;62.80;;;;;;5057981;28;20120;-63
2023/03/25 08:56:14;;;;;;;3.10;1.77;;;12.00;62.90;;;;;;5059787;28;20021;-63
2023/03/25 08:58:41;;;;;;;3.83;2.00;;;11.90;62.50;;;;;;5055037;28;20050;-64
2023/03/25 09:01:06;;;;;;;5.22;1.65;;;11.90;62.70;;;;;;5055980;28;20085;-63
2023/03/25 09:03:32;;;;;;;2.28;1.38;;;11.80;62.70;;;;;;5053149;28;20033;-63
2023/03/25 09:06:06;;;;;;;2.22;1.35;;;11.80;63.00;;;;;;5065008;28;20029;-63
2023/03/25 09:08:32;;;;;;;2.70;1.17;;;11.70;62.80;;;;;;5055509;28;20042;-63
2023/03/25 09:10:57;;;;;;;3.03;1.42;;;11.70;62.90;;;;;;5048356;28;20037;-63
2023/03/25 09:13:24;;;;;;;2.45;1.00;;;11.60;63.10;;;;;;5056061;28;20488;-63
2023/03/25 09:15:50;;;;;;;2.53;1.25;;;11.60;63.20;;;;;;5058189;28;20146;-63
2023/03/25 09:18:15;;;;;;;1.83;0.85;;;11.60;63.30;;;;;;5051337;28;20365;-64
2023/03/25 09:20:41;;;;;;;0.90;0.70;;;11.60;63.50;;;;;;5055657;28;20087;-63
2023/03/25 09:23:08;;;;;;;1.40;1.00;;;11.60;63.60;;;;;;5057958;28;20029;-63
2023/03/25 09:25:34;;;;;;;2.33;0.90;;;11.50;63.90;;;;;;5061463;28;20021;-63
2023/03/25 09:28:00;;;;;;;1.15;0.80;;;11.60;64.30;;;;;;5058243;28;20025;-63
2023/03/25 09:30:26;;;;;;;1.13;0.70;;;11.50;64.40;;;;;;5054791;28;20028;-63
2023/03/25 09:32:51;;;;;;;3.30;0.77;;;11.40;64.40;;;;;;5063191;28;20021;-64
2023/03/25 09:35:17;;;;;;;0.93;0.60;;;11.40;64.60;;;;;;5049945;28;20197;-63
2023/03/25 09:37:43;;;;;;;1.10;0.80;;;11.40;64.80;;;;;;5048229;28;20017;-62
2023/03/25 09:40:13;;;;;;;1.40;0.90;;;11.40;65.00;;;;;;5048961;28;20029;-65
2023/03/25 09:42:54;;;;;;;0.93;0.80;;;11.30;65.00;;;;;;5050343;28;20036;-64
2023/03/25 09:45:36;;;;;;;2.08;1.00;;;11.30;65.10;;;;;;5061540;28;20032;-63
2023/03/25 09:48:18;;;;;;;3.35;1.10;;;11.30;65.80;;;;;;5061075;28;20088;-64
2023/03/25 09:50:44;;;;;;;1.83;1.27;;;11.30;66.30;;;;;;5050412;28;20030;-63
2023/03/25 09:53:25;;;;;;;1.92;1.30;;;11.30;65.90;;;;;;5056861;28;20017;-64
2023/03/25 09:55:52;;;;;;;3.85;0.90;;;11.30;67.10;;;;;;5050945;28;20490;-63
2023/03/25 09:58:44;;;;;;;2.28;0.98;;;11.40;65.90;;;;;;5055371;28;21116;-63
2023/03/25 10:01:25;;;;;;;3.35;1.10;;;11.40;66.10;;;;;;5050583;28;20557;-64
2023/03/25 10:04:01;;;;;;;1.75;1.02;;;11.40;66.30;;;;;;5045362;28;20123;-64
2023/03/25 10:06:29;;;;;;;3.47;1.08;;;11.50;66.10;;;;;;5053769;28;20033;-64
2023/03/25 10:09:10;;;;;;;3.85;1.40;;;11.50;66.00;;;;;;5058504;28;20032;-64
2023/03/25 10:11:41;;;;;;;3.90;1.25;;;11.50;66.00;;;;;;5053953;28;19916;-64
2023/03/25 10:14:14;;;;;;;7.55;2.35;;;11.50;65.80;;;;;;5057111;28;20021;-64
2023/03/25 10:16:51;;;;;;;3.45;1.67;;;11.60;66.00;;;;;;5054585;28;20025;-65
2023/03/25 10:19:36;;;;;;;5.28;1.92;;;11.60;66.40;;;;;;5054091;28;20025;-64
2023/03/25 10:22:08;;;;;;;3.83;1.63;;;11.70;67.10;;;;;;5055224;28;20446;-63
2023/03/25 10:24:55;;;;;;;4.85;2.67;;;11.80;66.00;;;;;;5058464;28;20016;-65
2023/03/25 10:27:38;;;;;;;6.07;2.80;;;11.80;65.70;;;;;;5057481;28;20021;-65
2023/03/25 10:30:26;;;;;;;1.67;1.00;;;11.90;66.20;;;;;;5060589;28;20073;-63
2023/03/25 10:32:56;;;;;;;1.33;0.90;;;12.00;66.00;;;;;;5062585;28;20035;-63
2023/03/25 10:35:39;;;;;;;1.67;0.68;;;12.00;65.20;;;;;;5069482;28;20064;-63
2023/03/25 10:38:20;;;;;;;2.92;1.40;;;12.10;64.50;;;;;;5067684;28;20120;-63
2023/03/25 10:40:48;;;;;;;3.33;1.00;;;12.20;63.80;;;;;;5058195;28;20094;-65
2023/03/25 10:43:26;;;;;;;2.95;1.48;;;12.20;63.60;;;;;;5057436;28;20025;-65
2023/03/25 10:46:19;;;;;;;1.98;0.80;;;12.30;63.80;;;;;;5059744;28;20048;-64
2023/03/25 10:48:46;;;;;;;1.35;0.52;;;12.30;63.50;;;;;;5051158;28;20167;-63
2023/03/25 10:51:16;;;;;;;2.88;1.15;;;12.30;62.80;;;;;;5051226;28;20036;-64
2023/03/25 10:53:51;;;;;;;0.63;0.50;;;12.30;63.20;;;;;;5060405;28;20021;-63
2023/03/25 10:56:45;;;;;;;1.13;0.50;;;12.30;63.30;;;;;;5061839;28;20180;-63
2023/03/25 10:59:26;;;;;;;1.88;0.68;;;12.30;64.00;;;;;;5060529;28;20088;-62
2023/03/25 11:01:53;;;;;;;0.50;0.50;;;12.30;64.10;;;;;;5055431;28;20036;-63
2023/03/25 11:04:22;;;;;;;0.50;0.50;;;12.40;63.20;;;;;;5057163;28;20080;-63
2023/03/25 11:06:56;;;;;;;1.17;0.60;;;12.50;63.70;;;;;;5053835;28;20071;-63
2023/03/25 11:09:25;;;;;;;3.42;0.60;;;12.50;63.20;;;;;;5054070;28;20037;-64
2023/03/25 11:11:52;;;;;;;1.33;0.50;;;12.60;62.00;;;;;;5064132;28;20017;-63
2023/03/25 11:14:23;;;;;;;0.73;0.70;;;12.60;62.00;;;;;;5063148;28;20029;-64
2023/03/25 11:17:04;;;;;;;1.83;0.70;;;12.60;61.80;;;;;;5051111;28;20032;-63
2023/03/25 11:19:39;;;;;;;0.85;0.50;;;12.60;61.70;;;;;;5060900;28;20021;-63
2023/03/25 11:22:17;;;;;;;0.63;0.50;;;12.50;62.30;;;;;;5058604;28;20057;-64
2023/03/25 11:24:49;;;;;;;0.50;0.50;;;12.50;62.50;;;;;;5061979;28;20113;-63
2023/03/25 11:27:22;;;;;;;0.80;0.47;;;12.40;62.50;;;;;;5059733;28;20797;-62
2023/03/25 11:29:59;;;;;;;0.40;0.40;;;12.30;62.80;;;;;;5060500;28;20122;-63
2023/03/25 11:32:36;;;;;;;0.90;0.50;;;12.20;62.80;;;;;;5068407;28;20017;-63
2023/03/25 11:35:14;;;;;;;1.58;0.50;;;12.10;63.20;;;;;;5060638;28;20101;-63
2023/03/25 11:37:58;;;;;;;0.65;0.40;;;12.00;63.30;;;;;;5054302;28;20023;-63
2023/03/25 11:40:25;;;;;;;1.88;0.60;;;11.90;64.10;;;;;;5055106;28;20078;-63
2023/03/25 11:42:57;;;;;;;0.50;0.50;;;11.80;64.40;;;;;;5058266;28;20068;-63
2023/03/25 11:45:24;;;;;;;0.43;0.43;;;11.80;65.60;;;;;;5088553;28;20486;-63
2023/03/25 11:47:51;;;;;;;0.93;0.60;;;11.90;66.50;;;;;;5055638;28;20070;-65
2023/03/25 11:50:25;;;;;;;0.50;0.47;;;12.10;66.40;;;;;;5066371;28;20043;-64
2023/03/25 11:52:58;;;;;;;0.55;0.50;;;12.30;67.40;;;;;;5062746;28;20040;-64
2023/03/25 11:55:27;;;;;;;0.50;0.50;;;12.50;67.50;;;;;;5061779;28;20021;-64
2023/03/25 11:57:58;;;;;;;0.95;0.50;;;12.70;67.70;;;;;;5059698;28;20071;-64
2023/03/25 12:00:24;;;;;;;1.23;0.75;;;13.00;67.50;;;;;;5060951;28;20020;-65
2023/03/25 12:03:10;;;;;;;0.73;0.60;;;13.20;66.00;;;;;;5059294;28;20110;-65
2023/03/25 12:05:36;;;;;;;1.40;0.47;;;13.50;65.70;;;;;;5054885;28;20040;-65
2023/03/25 12:08:17;;;;;;;0.98;0.57;;;13.70;65.40;;;;;;5066156;28;20047;-64
2023/03/25 12:10:57;;;;;;;0.90;0.50;;;13.90;64.30;;;;;;5065217;28;20041;-65
2023/03/25 12:14:19;;;;;;;1.30;0.60;;;14.10;64.40;;;;;;5061910;28;20029;-64
2023/03/25 12:17:02;;;;;;;2.00;0.70;;;14.30;61.60;;;;;;5073944;28;20032;-65
2023/03/25 12:19:55;;;;;;;0.63;0.57;;;14.40;60.90;;;;;;5070078;28;20029;-64
2023/03/25 12:22:44;;;;;;;3.03;0.70;;;14.50;60.60;;;;;;5066472;28;20033;-64
2023/03/25 12:25:46;;;;;;;1.55;0.63;;;14.50;59.90;;;;;;5073891;28;20036;-64
2023/03/25 12:28:39;;;;;;;1.15;0.63;;;14.50;59.30;;;;;;5082621;28;20024;-64
2023/03/25 12:31:16;;;;;;;1.67;0.60;;;14.50;58.10;;;;;;5077067;28;20124;-64
2023/03/25 12:34:05;;;;;;;1.50;0.70;;;14.40;58.40;;;;;;5067081;28;20041;-64
2023/03/25 12:36:42;;;;;;;0.85;0.60;;;14.30;58.10;;;;;;5070543;28;20039;-64
2023/03/25 12:39:08;;;;;;;1.65;0.60;;;14.20;58.20;;;;;;5070931;28;20044;-63
2023/03/25 12:42:15;;;;;;;2.05;0.65;;;14.10;58.40;;;;;;5072763;28;20084;-64
2023/03/25 12:45:14;;;;;;;2.13;0.80;;;14.10;55.00;;;;;;5073560;28;20040;-64
2023/03/25 12:48:06;;;;;;;2.67;0.63;;;14.10;54.30;;;;;;5071809;28;20603;-64
2023/03/25 12:50:41;;;;;;;0.95;0.50;;;14.10;57.00;;;;;;5062746;28;20147;-64
2023/03/25 12:53:47;;;;;;;1.13;0.60;;;14.20;55.90;;;;;;5062208;28;20089;-64
2023/03/25 12:56:31;;;;;;;1.45;0.60;;;14.20;55.60;;;;;;5052051;28;20029;-65
2023/03/25 12:59:15;;;;;;;2.28;0.73;;;14.20;56.40;;;;;;5053487;28;20029;-64
2023/03/25 13:02:28;;;;;;;1.92;0.80;;;14.30;55.50;;;;;;5062372;28;20058;-63
2023/03/25 13:05:22;;;;;;;3.20;0.70;;;14.40;55.30;;;;;;5031675;28;20667;-63
2023/03/25 13:08:15;;;;;;;1.65;0.60;;;14.50;55.50;;;;;;5034400;28;20053;-63
2023/03/25 13:10:46;;;;;;;1.27;0.60;;;14.60;54.90;;;;;;5023392;28;20038;-63
2023/03/25 13:13:20;;;;;;;1.23;0.63;;;14.70;54.90;;;;;;5030401;28;20049;-63
2023/03/25 13:16:16;;;;;;;1.45;0.57;;;14.80;54.10;;;;;;5038959;28;20108;-63